WICT2: Wichita River At Wichita Falls, TX

Data processed at Thu Jun 18 2020 23:35


All information presented herein is the property of the government of the United States of America and may be revised or deleted at any time without prior notice.
Dissemination of this information without the expressed written consent of the Public Affairs Office, Tulsa District U.S. Army Corps of Engineers is strictly prohibited.
These data are gathered electronically and, as presented, have not undergone any form of quality control. These data are not guaranteed to be valid or correct.
Go to home page.
Go to station list.
Go to home page.

Upstream stations:

Downstream station:
Previous Day
Next Day
Current Day
    
SHEF ID:       WICT2     Wichita Rv at Wichita Falls, TX
STATION TYPE:  
Regulating: Stage =    18.50, Flow =     5434

               PRECIP     STAGE  RIV-FLOW  WTR-TEMP   CONDUCT  BAT-LOAD
                   in        ft       cfs         F   umho/cm      volt
              Ccp-Rev   Ccp-Rev   Ccp-Rev   Ccp-Rev   Ccp-Rev   Ccp-Rev
(US/Central)
06/18 00:00      ----      2.70        70     81.91      4795     12.65
06/18 01:00      ----      2.67        67     81.28      4816     12.65
06/18 02:00      ----      2.70        70     80.62      4819     12.65
06/18 03:00      ----      2.71        71     80.01      4803     12.65
06/18 04:00      ----      2.69        69     79.48      4795     12.57
06/18 05:00      ----      2.71        71     79.03      4801     12.57
06/18 06:00      ----      2.72        72     78.64      4801     12.57
06/18 07:00      ----      2.72        72     78.26      4796     12.57
06/18 08:00      ----      2.72        72     78.12      4789     12.57
06/18 09:00      ----      2.72        72     78.19      4781     12.65
06/18 10:00      ----      2.73        74     78.60      4775     13.29
06/18 11:00      ----      2.73        74     79.38      4773     13.29
06/18 12:00      ----      2.73        74     80.42      4758     13.13
06/18 13:00      ----      2.73        74     81.63      4767     13.05
06/18 14:00      ----      2.71        71     82.69      4777     13.05
06/18 15:00      ----      2.73        74     83.70      4767     12.97
06/18 16:00      ----      2.73        74     84.72      4743     12.89
06/18 17:00      ----      2.72        72     85.30      4709     12.89
06/18 18:00      ----      2.70        70     85.71      4656     12.81
06/18 19:00      ----      2.71        71     85.55      4711     12.81
06/18 20:00      ----      2.72        72     85.26      4686     12.73
06/18 21:00      ----      2.73        74     84.72      4644     12.73
06/18 22:00      ----      ----      ----      ----      ----      ----
06/18 23:00      ----      ----      ----      ----      ----      ----